createdAt,value
2023-03-27T00:00:13.261Z,1.10
2023-03-27T00:02:41.566Z,3.70
2023-03-27T00:05:10.448Z,2.03
2023-03-27T00:07:41.179Z,1.17
2023-03-27T00:10:12.160Z,4.15
2023-03-27T00:12:44.235Z,2.67
2023-03-27T00:15:17.223Z,1.27
2023-03-27T00:17:47.794Z,4.10
2023-03-27T00:20:17.477Z,3.80
2023-03-27T00:22:45.867Z,1.40
2023-03-27T00:25:18.077Z,0.60
2023-03-27T00:27:48.020Z,0.68
2023-03-27T00:30:16.262Z,0.85
2023-03-27T00:32:44.545Z,0.68
2023-03-27T00:35:13.242Z,0.60
2023-03-27T00:37:41.844Z,0.65
2023-03-27T00:40:15.500Z,0.75
2023-03-27T00:42:45.602Z,1.30
2023-03-27T00:45:18.330Z,2.58
2023-03-27T00:47:47.692Z,3.17
2023-03-27T00:50:20.014Z,2.22
2023-03-27T00:52:52.322Z,4.43
2023-03-27T00:55:22.374Z,3.53
2023-03-27T00:57:55.359Z,2.53
2023-03-27T01:00:23.449Z,2.42
2023-03-27T01:02:52.182Z,3.33
2023-03-27T01:05:21.416Z,3.47
2023-03-27T01:08:01.089Z,3.20
2023-03-27T01:10:41.449Z,5.18
2023-03-27T01:13:24.864Z,4.18
2023-03-27T01:15:59.287Z,4.53
2023-03-27T01:18:42.630Z,3.75
2023-03-27T01:21:52.769Z,2.88
2023-03-27T01:25:10.626Z,2.92
2023-03-27T01:28:08.433Z,2.17
2023-03-27T01:30:41.152Z,1.98
2023-03-27T01:33:43.110Z,2.10
2023-03-27T01:36:27.627Z,1.83
2023-03-27T01:39:27.205Z,1.83
2023-03-27T01:42:04.084Z,2.70
2023-03-27T01:44:43.768Z,3.45
2023-03-27T01:47:22.219Z,2.67
2023-03-27T01:49:55.993Z,3.15
2023-03-27T01:52:29.212Z,2.78
2023-03-27T01:55:04.988Z,4.55
2023-03-27T01:57:38.640Z,3.92
2023-03-27T02:00:22.205Z,5.43
2023-03-27T02:02:55.618Z,7.05
2023-03-27T02:05:29.641Z,10.98
2023-03-27T02:08:03.964Z,13.40
2023-03-27T02:10:38.068Z,14.35
2023-03-27T02:13:10.470Z,16.45
2023-03-27T02:15:41.763Z,20.30
2023-03-27T02:18:13.830Z,20.13
2023-03-27T02:20:42.771Z,27.25
2023-03-27T02:23:11.751Z,25.58
2023-03-27T02:25:44.267Z,34.40
2023-03-27T02:28:29.148Z,24.27
2023-03-27T02:31:33.564Z,27.13
2023-03-27T02:34:08.687Z,31.15
2023-03-27T02:36:45.786Z,29.77
2023-03-27T02:39:19.177Z,24.02
2023-03-27T02:41:53.252Z,23.38
2023-03-27T02:44:30.432Z,27.27
2023-03-27T02:47:06.750Z,28.43
2023-03-27T02:49:40.489Z,25.77
2023-03-27T02:52:13.677Z,28.38
2023-03-27T02:54:47.555Z,22.08
2023-03-27T02:57:22.668Z,22.63
2023-03-27T02:59:55.754Z,22.88
2023-03-27T03:02:32.552Z,25.20
2023-03-27T03:05:03.987Z,23.77
2023-03-27T03:07:34.610Z,12.93
2023-03-27T03:10:02.524Z,20.35
2023-03-27T03:12:31.809Z,38.08
2023-03-27T03:14:59.647Z,20.65
2023-03-27T03:17:27.531Z,19.45
2023-03-27T03:19:55.410Z,32.33
2023-03-27T03:22:23.377Z,17.20
2023-03-27T03:24:51.281Z,14.60
2023-03-27T03:27:21.248Z,18.83
2023-03-27T03:29:50.485Z,13.32
2023-03-27T03:32:18.345Z,15.27
2023-03-27T03:34:47.438Z,21.63
2023-03-27T03:37:15.386Z,8.65
2023-03-27T03:39:43.305Z,21.15
2023-03-27T03:42:22.905Z,12.57
2023-03-27T03:44:53.547Z,20.80
2023-03-27T03:47:22.236Z,16.20
2023-03-27T03:49:50.306Z,15.63
2023-03-27T03:52:18.221Z,17.20
2023-03-27T03:54:46.783Z,14.05
2023-03-27T03:57:15.186Z,15.73
2023-03-27T03:59:43.412Z,14.18
2023-03-27T04:02:13.077Z,13.65
2023-03-27T04:04:43.449Z,26.45
2023-03-27T04:07:12.691Z,10.48
2023-03-27T04:09:40.551Z,18.75
2023-03-27T04:12:10.056Z,25.52
2023-03-27T04:14:38.114Z,26.38
2023-03-27T04:17:05.996Z,20.63
2023-03-27T04:19:35.195Z,9.65
2023-03-27T04:22:03.634Z,21.95
2023-03-27T04:24:31.692Z,12.48
2023-03-27T04:27:01.125Z,15.57
2023-03-27T04:29:30.307Z,12.35
2023-03-27T04:31:58.636Z,15.05
2023-03-27T04:34:26.994Z,18.98
2023-03-27T04:36:56.390Z,16.27
2023-03-27T04:39:24.881Z,10.50
2023-03-27T04:41:53.801Z,16.90
2023-03-27T04:44:21.804Z,12.07
2023-03-27T04:46:49.805Z,15.30
2023-03-27T04:49:19.060Z,6.47
2023-03-27T04:51:47.035Z,21.42
2023-03-27T04:54:16.292Z,16.27
2023-03-27T04:56:45.654Z,19.20
2023-03-27T04:59:15.466Z,15.00
2023-03-27T05:01:43.516Z,24.88
2023-03-27T05:04:11.450Z,10.00
2023-03-27T05:06:40.721Z,21.65
2023-03-27T05:09:08.961Z,20.83
2023-03-27T05:11:38.151Z,20.73
2023-03-27T05:14:06.126Z,10.88
2023-03-27T05:16:35.767Z,20.35
2023-03-27T05:19:04.357Z,19.52
2023-03-27T05:21:32.287Z,13.20
2023-03-27T05:24:00.455Z,13.43
2023-03-27T05:26:28.287Z,22.20
2023-03-27T05:28:58.637Z,14.57
2023-03-27T05:31:27.293Z,25.45
2023-03-27T05:33:55.486Z,9.13
2023-03-27T05:36:23.318Z,12.10
2023-03-27T05:38:53.090Z,18.70
2023-03-27T05:41:21.514Z,11.60
2023-03-27T05:43:51.322Z,19.13
2023-03-27T05:46:21.835Z,15.52
2023-03-27T05:48:49.954Z,12.80
2023-03-27T05:51:17.914Z,18.60
2023-03-27T05:53:45.947Z,13.75
2023-03-27T05:56:14.286Z,18.10
2023-03-27T05:58:42.266Z,16.98
2023-03-27T06:01:11.046Z,16.88
2023-03-27T06:03:40.441Z,18.25
2023-03-27T06:06:09.193Z,13.82
2023-03-27T06:08:37.554Z,25.88
2023-03-27T06:11:09.789Z,20.10
2023-03-27T06:13:37.843Z,14.57
2023-03-27T06:16:06.846Z,14.23
2023-03-27T06:18:34.929Z,16.17
2023-03-27T06:21:04.620Z,10.95
2023-03-27T06:23:32.852Z,21.20
2023-03-27T06:26:00.776Z,14.07
2023-03-27T06:28:28.664Z,13.48
2023-03-27T06:30:57.680Z,19.27
2023-03-27T06:33:26.349Z,14.50
2023-03-27T06:35:55.131Z,10.45
2023-03-27T06:38:24.687Z,12.48
2023-03-27T06:40:52.695Z,14.95
2023-03-27T06:43:22.476Z,15.52
2023-03-27T06:45:51.744Z,13.38
2023-03-27T06:48:22.046Z,11.50
2023-03-27T06:50:52.162Z,22.10
2023-03-27T06:53:27.188Z,11.82
2023-03-27T06:55:58.364Z,11.13
2023-03-27T06:58:27.215Z,18.27
2023-03-27T07:00:55.305Z,23.00
2023-03-27T07:03:25.751Z,10.65
2023-03-27T07:05:53.775Z,16.83
2023-03-27T07:08:24.965Z,18.23
2023-03-27T07:11:07.972Z,19.48
2023-03-27T07:13:41.332Z,12.15
2023-03-27T07:16:12.017Z,13.63
2023-03-27T07:18:41.783Z,15.57
2023-03-27T07:21:10.614Z,12.68
2023-03-27T07:23:38.583Z,11.93
2023-03-27T07:26:07.141Z,10.30
2023-03-27T07:28:38.260Z,17.00
2023-03-27T07:31:25.920Z,16.58
2023-03-27T07:33:58.652Z,5.03
2023-03-27T07:36:26.745Z,13.30
2023-03-27T07:38:54.550Z,12.68
2023-03-27T07:41:22.818Z,18.77
2023-03-27T07:43:50.686Z,14.38
2023-03-27T07:46:19.856Z,16.70
2023-03-27T07:48:47.702Z,17.45
2023-03-27T07:51:15.548Z,10.23
2023-03-27T07:53:43.567Z,11.98
2023-03-27T07:56:11.934Z,13.80
2023-03-27T07:58:39.916Z,12.25
2023-03-27T08:01:08.079Z,22.52
2023-03-27T08:03:39.004Z,13.85
2023-03-27T08:06:07.957Z,14.93
2023-03-27T08:08:35.835Z,10.05
2023-03-27T08:11:05.659Z,10.90
2023-03-27T08:13:34.085Z,30.33
2023-03-27T08:16:06.651Z,13.52
2023-03-27T08:18:34.572Z,12.55
2023-03-27T08:21:05.851Z,12.43
2023-03-27T08:23:34.120Z,12.60
2023-03-27T08:26:03.646Z,14.80
2023-03-27T08:28:33.240Z,9.05
2023-03-27T08:31:03.322Z,5.78
2023-03-27T08:33:31.433Z,10.68
2023-03-27T08:35:59.579Z,10.25
2023-03-27T08:38:33.294Z,12.82
2023-03-27T08:41:05.232Z,10.15
2023-03-27T08:43:38.285Z,10.10
2023-03-27T08:46:09.727Z,11.07
2023-03-27T08:48:43.332Z,6.80
2023-03-27T08:51:16.724Z,11.77
2023-03-27T08:53:52.899Z,14.75
2023-03-27T08:56:22.076Z,9.98
2023-03-27T08:58:50.104Z,10.23
2023-03-27T09:01:22.731Z,14.93
2023-03-27T09:03:57.924Z,8.95
2023-03-27T09:06:28.629Z,5.22
2023-03-27T09:09:08.379Z,5.30
2023-03-27T09:11:51.978Z,14.50
2023-03-27T09:14:27.929Z,9.13
2023-03-27T09:16:57.510Z,10.85
2023-03-27T09:19:35.577Z,10.57
2023-03-27T09:22:07.983Z,6.25
2023-03-27T09:24:42.266Z,4.72
2023-03-27T09:27:18.718Z,8.32
2023-03-27T09:29:51.863Z,4.85
2023-03-27T09:32:34.871Z,6.15
2023-03-27T09:35:03.544Z,10.48
2023-03-27T09:37:31.745Z,7.30
2023-03-27T09:40:02.135Z,4.45
2023-03-27T09:42:34.214Z,6.75
2023-03-27T09:45:06.312Z,8.43
2023-03-27T09:47:38.292Z,13.93
2023-03-27T09:50:25.640Z,10.30
2023-03-27T09:55:43.772Z,4.03
2023-03-27T09:58:15.872Z,5.88
2023-03-27T10:00:43.831Z,10.80
2023-03-27T10:03:16.762Z,5.82
2023-03-27T10:05:46.914Z,6.45
2023-03-27T10:08:33.225Z,5.78
2023-03-27T10:11:07.836Z,6.72
2023-03-27T10:13:36.519Z,5.28
2023-03-27T10:16:06.474Z,6.28
2023-03-27T10:18:36.114Z,6.57
2023-03-27T10:21:10.144Z,8.77
2023-03-27T10:23:43.974Z,7.20
2023-03-27T10:26:18.159Z,6.30
2023-03-27T10:28:49.038Z,5.40
2023-03-27T10:31:30.681Z,5.70
2023-03-27T10:34:01.819Z,6.65
2023-03-27T10:36:34.384Z,5.47
2023-03-27T10:39:05.720Z,5.75
2023-03-27T10:41:38.829Z,5.75
2023-03-27T10:44:14.495Z,4.57
2023-03-27T10:46:43.990Z,4.65
2023-03-27T10:49:24.351Z,8.93
2023-03-27T10:51:58.592Z,5.45
2023-03-27T10:54:35.498Z,7.07
2023-03-27T10:57:10.914Z,3.83
2023-03-27T10:59:44.362Z,5.10
2023-03-27T11:02:17.385Z,5.82
2023-03-27T11:04:53.006Z,5.88
2023-03-27T11:07:26.709Z,5.88
2023-03-27T11:10:03.508Z,5.60
2023-03-27T11:12:36.620Z,4.55
2023-03-27T11:15:11.130Z,8.93
2023-03-27T11:17:45.013Z,5.38
2023-03-27T11:20:21.360Z,3.80
2023-03-27T11:22:55.806Z,5.82
2023-03-27T11:25:33.542Z,7.32
2023-03-27T11:28:11.173Z,6.13
2023-03-27T11:30:44.483Z,5.30
2023-03-27T11:33:28.860Z,3.42
2023-03-27T11:36:05.992Z,5.30
2023-03-27T11:38:38.190Z,4.40
2023-03-27T11:41:07.228Z,4.80
2023-03-27T11:43:40.061Z,5.60
2023-03-27T11:46:20.858Z,7.72
2023-03-27T11:49:03.272Z,14.48
2023-03-27T11:51:46.064Z,7.53
2023-03-27T11:54:33.917Z,2.58
2023-03-27T11:57:03.758Z,4.00
2023-03-27T11:59:48.120Z,2.17
2023-03-27T12:02:45.441Z,3.03
2023-03-27T12:05:24.998Z,5.68
2023-03-27T12:08:01.058Z,5.80
2023-03-27T12:10:32.768Z,2.95
2023-03-27T12:13:55.012Z,6.15
2023-03-27T12:16:56.757Z,5.20
2023-03-27T12:19:44.715Z,2.97
2023-03-27T12:22:27.002Z,4.18
2023-03-27T12:25:14.061Z,5.20
2023-03-27T12:27:55.526Z,4.47
2023-03-27T12:30:34.159Z,6.60
2023-03-27T12:33:16.398Z,3.55
2023-03-27T12:35:48.047Z,5.60
2023-03-27T12:38:25.775Z,3.08
2023-03-27T12:41:05.255Z,2.08
2023-03-27T12:43:39.687Z,5.25
2023-03-27T12:46:12.522Z,9.50
2023-03-27T12:48:57.760Z,6.82
2023-03-27T12:51:43.239Z,5.63
2023-03-27T12:54:26.115Z,8.70
2023-03-27T12:57:05.049Z,6.78
2023-03-27T12:59:36.018Z,5.28
2023-03-27T13:02:46.936Z,4.90
2023-03-27T13:05:58.151Z,3.42
2023-03-27T13:09:02.075Z,6.88
2023-03-27T13:11:49.363Z,7.47
2023-03-27T13:15:00.076Z,4.93
2023-03-27T13:17:40.371Z,9.75
2023-03-27T13:20:18.142Z,7.10
2023-03-27T13:22:59.933Z,8.02
2023-03-27T13:25:45.417Z,7.60
2023-03-27T13:28:28.376Z,5.28
2023-03-27T13:30:57.840Z,2.65
2023-03-27T13:33:27.953Z,5.78
2023-03-27T13:36:12.082Z,5.40
2023-03-27T13:39:13.722Z,2.60
2023-03-27T13:42:06.680Z,6.15
2023-03-27T13:44:54.491Z,4.75
2023-03-27T13:47:57.091Z,4.03
2023-03-27T13:50:50.769Z,7.88
2023-03-27T13:53:37.384Z,7.03
2023-03-27T13:56:19.126Z,3.08
2023-03-27T13:59:20.485Z,4.90
2023-03-27T14:01:57.625Z,4.15
2023-03-27T14:04:48.016Z,10.05
2023-03-27T14:07:57.230Z,6.22
2023-03-27T14:10:53.402Z,13.43
2023-03-27T14:13:37.182Z,5.30
2023-03-27T14:16:30.235Z,9.13
2023-03-27T14:19:13.288Z,13.98
2023-03-27T14:21:53.407Z,11.55
2023-03-27T14:24:29.036Z,8.30
2023-03-27T14:26:57.612Z,11.50
2023-03-27T14:29:26.909Z,7.18
2023-03-27T14:31:54.887Z,8.52
2023-03-27T14:34:30.347Z,11.02
2023-03-27T14:37:29.580Z,11.68
2023-03-27T14:39:58.932Z,12.38
2023-03-27T14:42:32.055Z,7.97
2023-03-27T14:45:17.938Z,12.75
2023-03-27T14:47:49.653Z,7.00
2023-03-27T14:50:18.794Z,9.10
2023-03-27T14:52:51.285Z,7.90
2023-03-27T14:55:19.200Z,11.07
2023-03-27T14:57:50.029Z,7.63
2023-03-27T15:00:24.432Z,10.98
2023-03-27T15:02:55.390Z,12.73
2023-03-27T15:05:23.662Z,4.65
2023-03-27T15:07:52.032Z,7.68
2023-03-27T15:10:26.215Z,5.75
2023-03-27T15:12:55.758Z,3.50
2023-03-27T15:15:31.264Z,5.03
2023-03-27T15:18:00.656Z,12.75
2023-03-27T15:20:32.597Z,8.32
2023-03-27T15:23:06.509Z,6.75
2023-03-27T15:25:39.289Z,5.97
2023-03-27T15:28:12.995Z,3.40
2023-03-27T15:30:51.280Z,6.63
2023-03-27T15:33:22.055Z,3.85
2023-03-27T15:35:53.676Z,3.38
2023-03-27T15:38:28.718Z,3.97
2023-03-27T15:41:02.331Z,3.08
2023-03-27T15:43:30.932Z,7.97
2023-03-27T15:46:13.612Z,7.35
2023-03-27T15:48:45.158Z,8.10
2023-03-27T15:51:27.830Z,4.72
2023-03-27T15:53:56.697Z,12.95
2023-03-27T15:56:27.197Z,8.57
2023-03-27T15:58:58.272Z,7.18
2023-03-27T16:01:32.277Z,4.30
2023-03-27T16:04:05.109Z,5.47
2023-03-27T16:06:37.482Z,4.82
2023-03-27T16:09:10.153Z,6.35
2023-03-27T16:11:45.686Z,4.38
2023-03-27T16:14:30.368Z,5.43
2023-03-27T16:17:24.843Z,6.53
2023-03-27T16:19:55.537Z,3.58
2023-03-27T16:22:25.150Z,4.30
2023-03-27T16:24:53.637Z,5.57
2023-03-27T16:27:23.917Z,5.40
2023-03-27T16:29:52.230Z,4.68
2023-03-27T16:32:23.256Z,3.47
2023-03-27T16:34:52.446Z,3.58
2023-03-27T16:37:21.285Z,2.85
2023-03-27T16:39:49.855Z,3.85
2023-03-27T16:42:20.164Z,4.97
2023-03-27T16:44:48.166Z,3.30
2023-03-27T16:47:17.222Z,4.05
2023-03-27T16:49:53.428Z,8.07
2023-03-27T16:52:28.302Z,5.82
2023-03-27T16:54:56.211Z,4.28
2023-03-27T16:57:24.363Z,4.97
2023-03-27T16:59:52.298Z,8.50
2023-03-27T17:02:20.639Z,5.82
2023-03-27T17:04:49.999Z,3.80
2023-03-27T17:07:18.079Z,8.60
2023-03-27T17:09:45.955Z,8.25
2023-03-27T17:12:13.870Z,6.22
2023-03-27T17:14:41.775Z,4.57
2023-03-27T17:17:09.725Z,7.05
2023-03-27T17:19:38.039Z,5.65
2023-03-27T17:22:07.210Z,7.78
2023-03-27T17:24:49.224Z,5.72
2023-03-27T17:27:23.952Z,9.25
2023-03-27T17:29:52.468Z,4.70
2023-03-27T17:32:20.336Z,6.43
2023-03-27T17:34:48.893Z,6.82
2023-03-27T17:37:18.319Z,6.38
2023-03-27T17:39:46.184Z,4.72
2023-03-27T17:42:14.025Z,3.80
2023-03-27T17:44:42.710Z,5.97
2023-03-27T17:47:10.732Z,6.68
2023-03-27T17:49:38.602Z,6.65
2023-03-27T17:52:11.208Z,7.45
2023-03-27T17:54:40.832Z,4.50
2023-03-27T17:57:08.741Z,6.18
2023-03-27T17:59:38.453Z,4.70
2023-03-27T18:02:07.109Z,10.65
2023-03-27T18:04:35.457Z,7.65
2023-03-27T18:07:03.282Z,4.45
2023-03-27T18:09:31.218Z,10.48
2023-03-27T18:12:00.388Z,4.55
2023-03-27T18:14:28.339Z,5.32
2023-03-27T18:16:56.161Z,4.22
2023-03-27T18:19:25.169Z,10.63
2023-03-27T18:21:53.055Z,5.65
2023-03-27T18:24:20.918Z,6.07
2023-03-27T18:26:48.933Z,5.53
2023-03-27T18:29:18.145Z,4.20
2023-03-27T18:31:46.050Z,3.30
2023-03-27T18:34:14.115Z,5.97
2023-03-27T18:36:42.392Z,3.58
2023-03-27T18:39:10.249Z,5.38
2023-03-27T18:41:39.575Z,7.32
2023-03-27T18:44:07.590Z,4.03
2023-03-27T18:46:36.777Z,4.63
2023-03-27T18:49:13.514Z,2.53
2023-03-27T18:51:45.635Z,4.38
2023-03-27T18:54:13.777Z,3.22
2023-03-27T18:56:43.782Z,5.55
2023-03-27T18:59:11.681Z,4.38
2023-03-27T19:01:40.995Z,2.80
2023-03-27T19:04:10.101Z,5.30
2023-03-27T19:06:38.084Z,3.65
2023-03-27T19:09:06.482Z,2.97
2023-03-27T19:11:34.330Z,3.13
2023-03-27T19:14:02.167Z,2.75
2023-03-27T19:16:30.174Z,3.63
2023-03-27T19:18:59.362Z,3.92
2023-03-27T19:21:27.186Z,6.20
2023-03-27T19:23:55.038Z,4.30
2023-03-27T19:26:22.900Z,3.75
2023-03-27T19:28:50.750Z,3.80
2023-03-27T19:31:18.614Z,3.28
2023-03-27T19:33:46.712Z,5.88
2023-03-27T19:36:15.975Z,3.60
2023-03-27T19:38:44.332Z,2.75
2023-03-27T19:41:12.743Z,2.92
2023-03-27T19:43:40.588Z,3.67
2023-03-27T19:46:16.277Z,5.22
2023-03-27T19:48:45.044Z,2.42
2023-03-27T19:51:13.145Z,2.45
2023-03-27T19:53:43.493Z,2.38
2023-03-27T19:56:11.675Z,4.57
2023-03-27T19:58:39.592Z,8.43
2023-03-27T20:01:07.633Z,8.13
2023-03-27T20:03:38.493Z,5.90
2023-03-27T20:06:13.333Z,2.60
2023-03-27T20:08:44.091Z,2.78
2023-03-27T20:11:12.001Z,3.25
2023-03-27T20:13:53.196Z,2.38
2023-03-27T20:16:26.042Z,2.13
2023-03-27T20:19:03.264Z,5.55
2023-03-27T20:21:33.628Z,5.63
2023-03-27T20:24:03.197Z,4.20
2023-03-27T20:26:38.768Z,2.80
2023-03-27T20:29:07.235Z,5.38
2023-03-27T20:31:35.256Z,6.05
2023-03-27T20:34:03.244Z,3.92
2023-03-27T20:36:33.246Z,3.30
2023-03-27T20:39:04.577Z,2.53
2023-03-27T20:41:32.804Z,3.28
2023-03-27T20:44:00.890Z,8.05
2023-03-27T20:46:30.531Z,3.20
2023-03-27T20:48:58.607Z,3.25
2023-03-27T20:51:26.463Z,9.18
2023-03-27T20:53:58.048Z,4.20
2023-03-27T20:56:27.298Z,3.45
2023-03-27T20:58:55.243Z,7.18
2023-03-27T21:01:27.620Z,8.80
2023-03-27T21:03:58.341Z,4.60
2023-03-27T21:06:26.731Z,8.93
2023-03-27T21:08:54.600Z,6.05
2023-03-27T21:11:22.451Z,6.82
2023-03-27T21:13:51.644Z,5.90
2023-03-27T21:16:19.629Z,6.40
2023-03-27T21:18:47.690Z,3.80
2023-03-27T21:21:15.758Z,5.88
2023-03-27T21:23:43.862Z,7.82
2023-03-27T21:26:11.858Z,4.85
2023-03-27T21:28:39.725Z,6.25
2023-03-27T21:31:10.597Z,10.20
2023-03-27T21:33:39.380Z,5.65
2023-03-27T21:36:08.170Z,7.50
2023-03-27T21:38:37.437Z,4.03
2023-03-27T21:41:06.254Z,7.95
2023-03-27T21:43:34.307Z,6.43
2023-03-27T21:46:05.240Z,5.72
2023-03-27T21:48:34.651Z,9.70
2023-03-27T21:51:03.590Z,9.40
2023-03-27T21:53:32.012Z,6.20
2023-03-27T21:56:00.040Z,6.70
2023-03-27T21:58:28.586Z,11.93
2023-03-27T22:01:00.610Z,8.55
2023-03-27T22:03:29.643Z,5.97
2023-03-27T22:06:11.621Z,9.02
2023-03-27T22:08:42.433Z,5.82
2023-03-27T22:11:10.978Z,7.57
2023-03-27T22:13:39.836Z,5.50
2023-03-27T22:16:09.789Z,9.45
2023-03-27T22:18:37.736Z,5.60
2023-03-27T22:21:19.503Z,5.93
2023-03-27T22:23:49.037Z,5.65
2023-03-27T22:26:17.282Z,9.65
2023-03-27T22:28:45.311Z,5.53
2023-03-27T22:31:16.146Z,9.70
2023-03-27T22:33:44.099Z,6.80
2023-03-27T22:36:13.267Z,8.00
2023-03-27T22:38:43.021Z,6.97
2023-03-27T22:41:13.103Z,10.18
2023-03-27T22:43:41.565Z,7.75
2023-03-27T22:46:12.028Z,6.72
2023-03-27T22:48:41.159Z,6.82
2023-03-27T22:51:10.319Z,10.43
2023-03-27T22:53:39.014Z,10.60
2023-03-27T22:56:09.644Z,7.75
2023-03-27T22:58:37.605Z,6.30
2023-03-27T23:01:06.652Z,5.53
2023-03-27T23:03:36.266Z,6.53
2023-03-27T23:06:07.624Z,10.38
2023-03-27T23:08:35.740Z,13.05
2023-03-27T23:11:05.948Z,8.07
2023-03-27T23:13:36.391Z,11.00
2023-03-27T23:16:04.455Z,14.23
2023-03-27T23:18:32.400Z,10.13
2023-03-27T23:21:02.441Z,9.98
2023-03-27T23:23:31.956Z,8.43
2023-03-27T23:26:00.696Z,9.43
2023-03-27T23:28:32.273Z,6.78
2023-03-27T23:31:03.126Z,14.02
2023-03-27T23:33:35.827Z,6.90
2023-03-27T23:36:05.831Z,8.10
2023-03-27T23:38:33.885Z,10.63
2023-03-27T23:41:05.306Z,5.78
2023-03-27T23:43:33.949Z,5.63
2023-03-27T23:46:04.094Z,8.05
2023-03-27T23:48:32.982Z,8.55
2023-03-27T23:51:04.023Z,7.93
2023-03-27T23:53:32.210Z,5.53
2023-03-27T23:56:01.106Z,11.60
2023-03-27T23:58:32.511Z,7.63
